Time;durP1;ratioP1;P1;durP2;ratioP2;P2;SDS_P1;SDS_P2;PMS_P1;PMS_P2;Temp;Humidity;BMP_temperature;BMP_pressure;BME280_temperature;BME280_humidity;BME280_pressure;Samples;Min_cycle;Max_cycle;Signal;HPM_P1;HPM_P2
2021/11/29 00:02:03;;;;;;;9.90;6.35;;;;;;;;;;5052665;28;20191;-65
2021/11/29 00:04:39;;;;;;;10.18;6.85;;;;;;;;;;5053224;28;20183;-65
2021/11/29 00:07:09;;;;;;;8.57;6.13;;;;;;;;;;5052225;28;20321;-65
2021/11/29 00:09:44;;;;;;;8.40;6.55;;;;;;;;;;5052755;28;20195;-66
2021/11/29 00:12:12;;;;;;;11.40;6.75;;;;;;;;;;5052213;28;20650;-65
2021/11/29 00:14:42;;;;;;;10.05;6.45;;;;;;;;;;5052329;28;20226;-65
2021/11/29 00:17:14;;;;;;;9.43;6.30;;;;;;;;;;5052058;28;20534;-65
2021/11/29 00:19:46;;;;;;;10.60;6.05;;;;;;;;;;5052716;28;20241;-65
2021/11/29 00:22:19;;;;;;;12.07;6.88;;;;;;;;;;5051938;28;20183;-65
2021/11/29 00:24:51;;;;;;;8.27;6.07;;;;;;;;;;5051833;28;20653;-65
2021/11/29 00:27:27;;;;;;;8.93;6.00;;;;;;;;;;5051886;28;20268;-65
2021/11/29 00:29:55;;;;;;;8.82;5.47;;;;;;;;;;5051907;28;20240;-65
2021/11/29 00:32:25;;;;;;;7.30;5.32;;;;;;;;;;5051986;28;20305;-64
2021/11/29 00:34:55;;;;;;;6.95;4.68;;;;;;;;;;5051884;28;20642;-65
2021/11/29 00:37:26;;;;;;;7.53;5.32;;;;;;;;;;5052271;28;20238;-65
2021/11/29 00:39:54;;;;;;;6.55;4.55;;;;;;;;;;5052004;28;20225;-65
2021/11/29 00:42:22;;;;;;;5.57;3.92;;;;;;;;;;5052029;28;20605;-65
2021/11/29 00:44:54;;;;;;;8.43;4.88;;;;;;;;;;5051475;28;20191;-65
2021/11/29 00:47:21;;;;;;;6.35;4.00;;;;;;;;;;5051833;28;20280;-64
2021/11/29 00:49:51;;;;;;;6.55;4.60;;;;;;;;;;5051408;28;20703;-65
2021/11/29 00:52:20;;;;;;;6.18;3.80;;;;;;;;;;5052160;28;20195;-65
2021/11/29 00:54:53;;;;;;;4.03;2.78;;;;;;;;;;5051806;28;20309;-65
2021/11/29 00:57:24;;;;;;;5.43;3.20;;;;;;;;;;5052110;28;20557;-65
2021/11/29 00:59:54;;;;;;;5.40;3.97;;;;;;;;;;5051526;28;20194;-65
2021/11/29 01:02:22;;;;;;;4.25;3.08;;;;;;;;;;5051784;28;20217;-65
2021/11/29 01:04:54;;;;;;;6.05;3.60;;;;;;;;;;5051672;28;20278;-68
2021/11/29 01:07:24;;;;;;;4.78;3.35;;;;;;;;;;5031716;28;20231;-65
2021/11/29 01:09:52;;;;;;;5.75;3.42;;;;;;;;;;5037533;28;20576;-65
2021/11/29 01:12:22;;;;;;;5.25;3.85;;;;;;;;;;5051750;28;20210;-65
2021/11/29 01:14:53;;;;;;;4.95;3.60;;;;;;;;;;5051233;28;20222;-65
2021/11/29 01:17:20;;;;;;;5.03;3.58;;;;;;;;;;5051769;28;20285;-65
2021/11/29 01:19:50;;;;;;;4.85;3.25;;;;;;;;;;5051313;28;20186;-65
2021/11/29 01:22:22;;;;;;;6.82;4.20;;;;;;;;;;5051735;28;20195;-64
2021/11/29 01:25:09;;;;;;;4.00;3.13;;;;;;;;;;5051433;28;20593;-65
2021/11/29 01:27:39;;;;;;;5.80;4.60;;;;;;;;;;5051546;28;20222;-65
2021/11/29 01:30:08;;;;;;;5.78;4.22;;;;;;;;;;5051248;28;20191;-65
2021/11/29 01:32:53;;;;;;;5.60;4.00;;;;;;;;;;5051906;28;20199;-66
2021/11/29 01:35:23;;;;;;;6.55;4.30;;;;;;;;;;5051670;28;20285;-64
2021/11/29 01:38:07;;;;;;;5.85;4.20;;;;;;;;;;5055408;28;20187;-65
2021/11/29 01:40:35;;;;;;;7.78;4.78;;;;;;;;;;5055761;28;20281;-64
2021/11/29 01:43:20;;;;;;;5.95;4.03;;;;;;;;;;5055180;28;20187;-64
2021/11/29 01:45:50;;;;;;;6.97;4.50;;;;;;;;;;5055422;28;20311;-65
2021/11/29 01:48:26;;;;;;;7.53;3.95;;;;;;;;;;5054823;28;20556;-65
2021/11/29 01:50:55;;;;;;;7.65;3.90;;;;;;;;;;5055652;28;20202;-64
2021/11/29 01:53:28;;;;;;;7.47;4.30;;;;;;;;;;5054785;28;20191;-69
2021/11/29 01:55:59;;;;;;;5.57;3.75;;;;;;;;;;5054929;28;20578;-65
2021/11/29 01:58:31;;;;;;;6.05;4.25;;;;;;;;;;5055144;28;20234;-64
2021/11/29 02:01:00;;;;;;;6.75;4.53;;;;;;;;;;5054892;28;20193;-65
2021/11/29 02:03:31;;;;;;;10.00;4.38;;;;;;;;;;5055238;28;20602;-65
2021/11/29 02:06:01;;;;;;;7.00;5.25;;;;;;;;;;5054555;28;20215;-64
2021/11/29 02:08:29;;;;;;;8.90;5.70;;;;;;;;;;5055046;28;20191;-64
2021/11/29 02:11:00;;;;;;;7.88;5.70;;;;;;;;;;5054543;28;20591;-64
2021/11/29 02:13:30;;;;;;;8.88;5.38;;;;;;;;;;5054717;28;20194;-65
2021/11/29 02:16:01;;;;;;;8.10;5.15;;;;;;;;;;5054191;28;20637;-65
2021/11/29 02:18:30;;;;;;;6.93;5.03;;;;;;;;;;5054926;28;20191;-65
2021/11/29 02:21:09;;;;;;;9.13;5.85;;;;;;;;;;5054185;28;20205;-65
2021/11/29 02:23:40;;;;;;;7.63;6.10;;;;;;;;;;5054826;28;20195;-66
2021/11/29 02:26:08;;;;;;;8.32;5.93;;;;;;;;;;5054010;28;20214;-65
2021/11/29 02:28:49;;;;;;;7.40;5.70;;;;;;;;;;5055029;28;20191;-65
2021/11/29 02:31:21;;;;;;;10.45;6.18;;;;;;;;;;5054238;28;20179;-65
2021/11/29 02:33:51;;;;;;;6.53;5.25;;;;;;;;;;5054746;28;20260;-65
2021/11/29 02:36:20;;;;;;;8.43;5.93;;;;;;;;;;5054367;28;20183;-64
2021/11/29 02:38:49;;;;;;;7.18;4.93;;;;;;;;;;5054795;28;20195;-65
2021/11/29 02:41:17;;;;;;;8.60;5.35;;;;;;;;;;5053548;28;20221;-65
2021/11/29 02:43:44;;;;;;;8.98;6.15;;;;;;;;;;5054438;28;20654;-65
2021/11/29 02:46:21;;;;;;;7.88;5.72;;;;;;;;;;5053650;28;20581;-64
2021/11/29 02:48:54;;;;;;;7.85;6.00;;;;;;;;;;5054293;28;20199;-65
2021/11/29 02:51:28;;;;;;;9.57;6.78;;;;;;;;;;5053809;28;20187;-65
2021/11/29 02:54:00;;;;;;;8.00;6.43;;;;;;;;;;5054334;28;20924;-65
2021/11/29 02:56:27;;;;;;;7.88;6.22;;;;;;;;;;5053678;28;20183;-64
2021/11/29 02:58:55;;;;;;;9.25;6.38;;;;;;;;;;5053981;28;20209;-65
2021/11/29 03:01:22;;;;;;;9.32;6.53;;;;;;;;;;5053682;28;20365;-65
2021/11/29 03:03:50;;;;;;;9.50;6.38;;;;;;;;;;5054276;28;20195;-65
2021/11/29 03:06:23;;;;;;;9.57;5.82;;;;;;;;;;5053330;28;20249;-65
2021/11/29 03:08:55;;;;;;;7.93;5.88;;;;;;;;;;5053519;28;20190;-65
2021/11/29 03:11:23;;;;;;;7.90;5.70;;;;;;;;;;5053693;28;20277;-65
2021/11/29 03:13:51;;;;;;;8.85;6.60;;;;;;;;;;5053309;28;20658;-65
2021/11/29 03:16:18;;;;;;;12.45;7.72;;;;;;;;;;5053728;28;20234;-65
2021/11/29 03:18:49;;;;;;;7.55;6.25;;;;;;;;;;5053695;28;20187;-65
2021/11/29 03:21:17;;;;;;;8.82;6.72;;;;;;;;;;5053320;28;20197;-65
2021/11/29 03:23:48;;;;;;;8.10;5.72;;;;;;;;;;5053563;28;20563;-66
2021/11/29 03:26:21;;;;;;;8.77;6.75;;;;;;;;;;5053061;28;20261;-66
2021/11/29 03:29:06;;;;;;;10.60;6.78;;;;;;;;;;5053527;28;20191;-65
2021/11/29 03:31:35;;;;;;;7.63;5.47;;;;;;;;;;5033695;28;20192;-69
2021/11/29 03:34:06;;;;;;;7.70;6.07;;;;;;;;;;5033920;28;20200;-65
2021/11/29 03:36:37;;;;;;;10.25;6.88;;;;;;;;;;5052750;28;20604;-65
2021/11/29 03:39:06;;;;;;;12.20;8.13;;;;;;;;;;5053620;28;20548;-66
2021/11/29 03:41:36;;;;;;;10.60;8.05;;;;;;;;;;5033365;28;20188;-64
2021/11/29 03:44:06;;;;;;;10.40;7.72;;;;;;;;;;5033411;28;20247;-65
2021/11/29 03:46:33;;;;;;;11.50;8.13;;;;;;;;;;5052780;28;20246;-65
2021/11/29 03:49:06;;;;;;;13.25;9.65;;;;;;;;;;5053343;28;20197;-65
2021/11/29 03:51:39;;;;;;;11.35;7.38;;;;;;;;;;5052651;28;20191;-65
2021/11/29 03:54:10;;;;;;;11.75;7.78;;;;;;;;;;5053122;28;20190;-65
2021/11/29 03:56:39;;;;;;;12.07;7.78;;;;;;;;;;5052700;28;20286;-65
2021/11/29 03:59:08;;;;;;;11.35;8.93;;;;;;;;;;5051739;28;20183;-66
2021/11/29 04:01:37;;;;;;;13.65;8.70;;;;;;;;;;5053092;28;20197;-65
2021/11/29 04:04:05;;;;;;;12.35;8.75;;;;;;;;;;5052659;28;20195;-65
2021/11/29 04:06:33;;;;;;;10.60;8.40;;;;;;;;;;5052798;28;20222;-65
2021/11/29 04:09:04;;;;;;;12.70;9.07;;;;;;;;;;5052539;28;20183;-65
2021/11/29 04:11:34;;;;;;;11.45;8.18;;;;;;;;;;5053053;28;20191;-65
2021/11/29 04:14:06;;;;;;;9.75;7.72;;;;;;;;;;5052577;28;20187;-65
2021/11/29 04:16:34;;;;;;;11.95;8.55;;;;;;;;;;5053308;28;20621;-65
2021/11/29 04:19:06;;;;;;;13.20;8.05;;;;;;;;;;5052452;28;20194;-65
2021/11/29 04:21:36;;;;;;;11.10;8.43;;;;;;;;;;5052761;28;20278;-65
2021/11/29 04:24:06;;;;;;;13.35;9.70;;;;;;;;;;5052550;28;20606;-64
2021/11/29 04:26:42;;;;;;;12.35;8.55;;;;;;;;;;5052604;28;20222;-65
2021/11/29 04:29:17;;;;;;;10.98;8.15;;;;;;;;;;5052255;28;20219;-65
2021/11/29 04:31:47;;;;;;;16.75;9.52;;;;;;;;;;5052583;28;20194;-65
2021/11/29 04:34:18;;;;;;;15.07;10.02;;;;;;;;;;5052122;28;20182;-65
2021/11/29 04:36:47;;;;;;;12.98;8.43;;;;;;;;;;5052419;28;20721;-65
2021/11/29 04:39:17;;;;;;;12.60;9.25;;;;;;;;;;5052029;28;20281;-64
2021/11/29 04:41:45;;;;;;;12.15;9.45;;;;;;;;;;5052437;28;20202;-66
2021/11/29 04:44:14;;;;;;;13.05;8.60;;;;;;;;;;5052036;28;20187;-65
2021/11/29 04:46:42;;;;;;;13.98;9.35;;;;;;;;;;5052576;28;20563;-65
2021/11/29 04:49:10;;;;;;;10.90;8.23;;;;;;;;;;5051859;28;20187;-66
2021/11/29 04:51:40;;;;;;;11.88;9.05;;;;;;;;;;5052470;28;20226;-65
2021/11/29 04:54:11;;;;;;;12.45;8.95;;;;;;;;;;5051908;28;20656;-65
2021/11/29 04:56:41;;;;;;;12.32;8.60;;;;;;;;;;5052319;28;20190;-65
2021/11/29 04:59:14;;;;;;;14.45;9.48;;;;;;;;;;5051698;28;20271;-65
2021/11/29 05:01:45;;;;;;;12.63;9.27;;;;;;;;;;5052394;28;20195;-65
2021/11/29 05:04:12;;;;;;;13.32;9.18;;;;;;;;;;5051855;28;20191;-65
2021/11/29 05:06:40;;;;;;;12.60;11.02;;;;;;;;;;5051940;28;20217;-65
2021/11/29 05:09:10;;;;;;;18.77;10.82;;;;;;;;;;5051940;28;20185;-65
2021/11/29 05:11:37;;;;;;;13.13;10.02;;;;;;;;;;5056414;28;20191;-66
2021/11/29 05:14:05;;;;;;;12.27;9.02;;;;;;;;;;5055806;28;20229;-65
2021/11/29 05:16:38;;;;;;;14.57;10.30;;;;;;;;;;5056104;28;20306;-64
2021/11/29 05:19:07;;;;;;;10.35;8.27;;;;;;;;;;5056043;28;20193;-65
2021/11/29 05:21:37;;;;;;;12.70;9.57;;;;;;;;;;5056152;28;20298;-66
2021/11/29 05:24:06;;;;;;;12.43;8.82;;;;;;;;;;5055842;28;20187;-65
2021/11/29 05:26:37;;;;;;;13.60;10.30;;;;;;;;;;5052462;28;20595;-65
2021/11/29 05:29:05;;;;;;;13.90;9.88;;;;;;;;;;5050762;28;20183;-65
2021/11/29 05:31:35;;;;;;;12.43;9.00;;;;;;;;;;5054568;28;20195;-65
2021/11/29 05:34:03;;;;;;;12.35;9.75;;;;;;;;;;5053827;28;20653;-66
2021/11/29 05:36:32;;;;;;;14.70;10.70;;;;;;;;;;5054151;28;20409;-65
2021/11/29 05:39:03;;;;;;;21.48;13.35;;;;;;;;;;5054145;28;20291;-65
2021/11/29 05:41:33;;;;;;;25.15;16.23;;;;;;;;;;5054030;28;20669;-66
2021/11/29 05:44:01;;;;;;;20.75;14.43;;;;;;;;;;5049866;28;20195;-65
2021/11/29 05:46:28;;;;;;;15.85;9.90;;;;;;;;;;5054222;28;20252;-65
2021/11/29 05:48:57;;;;;;;13.77;10.07;;;;;;;;;;5053574;28;20222;-65
2021/11/29 05:51:27;;;;;;;14.65;10.25;;;;;;;;;;5053769;28;20569;-65
2021/11/29 05:53:57;;;;;;;23.83;14.20;;;;;;;;;;5053803;28;20380;-65
2021/11/29 05:56:24;;;;;;;24.60;16.55;;;;;;;;;;5053507;28;20205;-66
2021/11/29 05:58:52;;;;;;;24.95;16.50;;;;;;;;;;5053210;28;20659;-65
2021/11/29 06:01:23;;;;;;;34.80;23.60;;;;;;;;;;5053786;28;20195;-65
2021/11/29 06:03:54;;;;;;;27.23;18.67;;;;;;;;;;5053289;28;20186;-65
2021/11/29 06:06:21;;;;;;;82.55;53.78;;;;;;;;;;5053386;28;20198;-66
2021/11/29 06:08:49;;;;;;;37.35;23.30;;;;;;;;;;5053546;28;20222;-65
2021/11/29 06:11:18;;;;;;;18.52;15.05;;;;;;;;;;5053637;28;20210;-65
2021/11/29 06:13:48;;;;;;;71.45;46.55;;;;;;;;;;5053476;28;20540;-65
2021/11/29 06:16:24;;;;;;;39.95;26.00;;;;;;;;;;5049280;28;20218;-65
2021/11/29 06:18:54;;;;;;;16.60;10.82;;;;;;;;;;5053492;28;20607;-67
2021/11/29 06:21:25;;;;;;;13.68;8.93;;;;;;;;;;5052182;28;20532;-65
2021/11/29 06:23:52;;;;;;;12.23;8.95;;;;;;;;;;5053060;28;20222;-65
2021/11/29 06:26:23;;;;;;;15.13;8.52;;;;;;;;;;5053451;28;20649;-65
2021/11/29 06:28:51;;;;;;;13.65;9.50;;;;;;;;;;5052755;28;20210;-65
2021/11/29 06:31:19;;;;;;;12.98;9.50;;;;;;;;;;5053255;28;20669;-64
2021/11/29 06:33:46;;;;;;;14.68;11.00;;;;;;;;;;5051945;28;20187;-65
2021/11/29 06:36:14;;;;;;;16.52;13.63;;;;;;;;;;5053265;28;20641;-64
2021/11/29 06:38:42;;;;;;;18.30;15.88;;;;;;;;;;5050460;28;20248;-65
2021/11/29 06:41:10;;;;;;;12.98;9.68;;;;;;;;;;5053075;28;20213;-65
2021/11/29 06:43:38;;;;;;;13.10;9.63;;;;;;;;;;5052500;28;20668;-66
2021/11/29 06:46:07;;;;;;;15.15;9.18;;;;;;;;;;5052345;28;20249;-65
2021/11/29 06:48:37;;;;;;;11.00;8.13;;;;;;;;;;5051743;28;20243;-65
2021/11/29 06:51:05;;;;;;;25.55;13.98;;;;;;;;;;5052996;28;20194;-65
2021/11/29 06:56:26;;;;;;;20.80;13.65;;;;;;;;;;5048490;28;20191;-65
2021/11/29 06:58:55;;;;;;;16.33;11.88;;;;;;;;;;5048662;28;20194;-66
2021/11/29 07:01:23;;;;;;;13.65;11.13;;;;;;;;;;5051085;28;20199;-65
2021/11/29 07:03:51;;;;;;;24.45;16.35;;;;;;;;;;5052428;28;20611;-65
2021/11/29 07:06:18;;;;;;;13.43;10.75;;;;;;;;;;5051482;28;20565;-65
2021/11/29 07:08:46;;;;;;;16.10;10.45;;;;;;;;;;5052408;28;20252;-64
2021/11/29 07:11:13;;;;;;;15.02;10.00;;;;;;;;;;5051751;28;20233;-64
2021/11/29 07:13:41;;;;;;;14.20;10.10;;;;;;;;;;5051995;28;20191;-65
2021/11/29 07:16:14;;;;;;;12.13;8.65;;;;;;;;;;5051234;28;20218;-66
2021/11/29 07:18:42;;;;;;;14.32;10.07;;;;;;;;;;5052545;28;20202;-66
2021/11/29 07:21:11;;;;;;;16.55;10.20;;;;;;;;;;5052306;28;20286;-64
2021/11/29 07:23:39;;;;;;;11.15;8.60;;;;;;;;;;5052320;28;20194;-65
2021/11/29 07:26:06;;;;;;;13.70;10.10;;;;;;;;;;5051577;28;20183;-65
2021/11/29 07:28:33;;;;;;;13.80;9.98;;;;;;;;;;5051107;28;20548;-64
2021/11/29 07:31:01;;;;;;;15.98;10.45;;;;;;;;;;5051099;28;20215;-65
2021/11/29 07:33:30;;;;;;;17.60;13.75;;;;;;;;;;5051195;28;20190;-64
2021/11/29 07:35:57;;;;;;;15.73;11.00;;;;;;;;;;5052037;28;20198;-64
2021/11/29 07:38:24;;;;;;;20.92;14.80;;;;;;;;;;5051262;28;20195;-63
2021/11/29 07:40:51;;;;;;;12.68;8.55;;;;;;;;;;5051320;28;20194;-66
2021/11/29 07:43:19;;;;;;;15.60;11.00;;;;;;;;;;5050936;28;20194;-64
2021/11/29 07:45:46;;;;;;;14.15;10.27;;;;;;;;;;5051488;28;20585;-65
2021/11/29 07:48:13;;;;;;;11.88;8.80;;;;;;;;;;5048436;28;20223;-65
2021/11/29 07:50:42;;;;;;;10.27;7.07;;;;;;;;;;5051568;28;20198;-65
2021/11/29 07:53:10;;;;;;;11.95;10.27;;;;;;;;;;5051464;28;20183;-64
2021/11/29 07:55:37;;;;;;;15.38;12.95;;;;;;;;;;5048674;28;20749;-63
2021/11/29 07:58:07;;;;;;;15.32;12.80;;;;;;;;;;5047786;28;20187;-65
2021/11/29 08:00:38;;;;;;;10.88;8.90;;;;;;;;;;5046549;28;20237;-66
2021/11/29 08:03:07;;;;;;;13.80;10.70;;;;;;;;;;5047766;28;20198;-64
2021/11/29 08:05:38;;;;;;;13.57;11.95;;;;;;;;;;5049935;28;20600;-64
2021/11/29 08:08:14;;;;;;;18.08;14.00;;;;;;;;;;5048160;28;20234;-65
2021/11/29 08:10:42;;;;;;;11.57;9.25;;;;;;;;;;5050022;28;20293;-65
2021/11/29 08:13:13;;;;;;;19.73;14.32;;;;;;;;;;5049875;28;20504;-65
2021/11/29 08:15:43;;;;;;;19.42;15.52;;;;;;;;;;5048742;28;20227;-65
2021/11/29 08:18:29;;;;;;;13.52;10.50;;;;;;;;;;5049306;28;20222;-66
2021/11/29 08:21:01;;;;;;;12.63;10.10;;;;;;;;;;5049875;28;20657;-65
2021/11/29 08:23:31;;;;;;;17.30;13.02;;;;;;;;;;5050012;28;20199;-65
2021/11/29 08:25:58;;;;;;;14.80;10.85;;;;;;;;;;5049080;28;20191;-65
2021/11/29 08:28:29;;;;;;;14.68;12.40;;;;;;;;;;5049562;28;20226;-65
2021/11/29 08:30:58;;;;;;;15.65;10.93;;;;;;;;;;5049289;28;20203;-65
2021/11/29 08:33:28;;;;;;;15.55;13.07;;;;;;;;;;5049327;28;20214;-66
2021/11/29 08:35:55;;;;;;;12.18;9.60;;;;;;;;;;5050121;28;20548;-65
2021/11/29 08:38:25;;;;;;;13.25;10.85;;;;;;;;;;5049047;28;20198;-65
2021/11/29 08:40:54;;;;;;;11.73;9.50;;;;;;;;;;5049188;28;20207;-65
2021/11/29 08:43:22;;;;;;;17.30;12.70;;;;;;;;;;5049124;28;20233;-65
2021/11/29 08:45:50;;;;;;;10.45;8.70;;;;;;;;;;5049118;28;20206;-65
2021/11/29 08:48:21;;;;;;;10.45;8.75;;;;;;;;;;5049463;28;20268;-67
2021/11/29 08:50:50;;;;;;;13.85;11.23;;;;;;;;;;5049026;28;20230;-65
2021/11/29 08:53:25;;;;;;;14.00;9.68;;;;;;;;;;5049884;28;20211;-65
2021/11/29 08:55:55;;;;;;;11.75;9.55;;;;;;;;;;5048619;28;20194;-66
2021/11/29 08:58:23;;;;;;;11.50;9.00;;;;;;;;;;5049066;28;20187;-65
2021/11/29 09:00:55;;;;;;;13.60;10.27;;;;;;;;;;5049602;28;20261;-64
2021/11/29 09:03:27;;;;;;;10.45;8.73;;;;;;;;;;5048989;28;20201;-65
2021/11/29 09:05:58;;;;;;;10.65;8.70;;;;;;;;;;5048814;28;20801;-63
2021/11/29 09:08:26;;;;;;;18.10;13.57;;;;;;;;;;5049524;28;20233;-65
2021/11/29 09:10:55;;;;;;;15.63;11.10;;;;;;;;;;5048842;28;20191;-65
2021/11/29 09:13:23;;;;;;;17.77;13.55;;;;;;;;;;5049465;28;20246;-65
2021/11/29 09:15:51;;;;;;;19.45;13.48;;;;;;;;;;5048569;28;20616;-65
2021/11/29 09:18:24;;;;;;;13.93;9.35;;;;;;;;;;5049619;28;20218;-66
2021/11/29 09:20:52;;;;;;;12.50;10.00;;;;;;;;;;5047892;28;20256;-65
2021/11/29 09:23:21;;;;;;;12.00;8.63;;;;;;;;;;5049585;28;20205;-65
2021/11/29 09:25:52;;;;;;;11.20;8.18;;;;;;;;;;5048701;28;20194;-66
2021/11/29 09:28:21;;;;;;;14.25;11.40;;;;;;;;;;5047313;28;20219;-66
2021/11/29 09:30:49;;;;;;;17.02;15.15;;;;;;;;;;5048942;28;20577;-65
2021/11/29 09:33:22;;;;;;;19.77;17.45;;;;;;;;;;5049190;28;20237;-66
2021/11/29 09:35:51;;;;;;;20.33;13.65;;;;;;;;;;5047091;28;20623;-65
2021/11/29 09:38:21;;;;;;;19.27;14.77;;;;;;;;;;5049329;28;20213;-66
2021/11/29 09:40:48;;;;;;;19.40;16.30;;;;;;;;;;5048082;28;20587;-67
2021/11/29 09:43:17;;;;;;;16.17;12.15;;;;;;;;;;5049163;28;20287;-66
2021/11/29 09:45:47;;;;;;;20.13;14.88;;;;;;;;;;5046867;28;20209;-66
2021/11/29 09:48:18;;;;;;;22.20;16.52;;;;;;;;;;5047646;28;20236;-67
2021/11/29 09:50:49;;;;;;;42.15;24.35;;;;;;;;;;5046922;28;20199;-65
2021/11/29 09:53:17;;;;;;;17.05;12.75;;;;;;;;;;5046855;28;20222;-65
2021/11/29 09:55:45;;;;;;;18.50;13.43;;;;;;;;;;5048152;28;20202;-66
2021/11/29 09:58:14;;;;;;;15.27;11.18;;;;;;;;;;5052342;28;20237;-65
2021/11/29 10:00:43;;;;;;;15.70;11.70;;;;;;;;;;5052323;28;20704;-65
2021/11/29 10:03:12;;;;;;;17.50;12.93;;;;;;;;;;5052703;28;20796;-65
2021/11/29 10:05:44;;;;;;;21.17;15.52;;;;;;;;;;5052346;28;20205;-66
2021/11/29 10:08:21;;;;;;;24.20;20.50;;;;;;;;;;5051870;28;20201;-66
2021/11/29 10:10:52;;;;;;;18.50;14.82;;;;;;;;;;5051693;28;20198;-65
2021/11/29 10:13:20;;;;;;;25.65;20.63;;;;;;;;;;5049486;28;20198;-66
2021/11/29 10:15:54;;;;;;;22.45;19.45;;;;;;;;;;5049325;28;20234;-66
2021/11/29 10:18:25;;;;;;;16.67;12.98;;;;;;;;;;5051819;28;20195;-66
2021/11/29 10:20:57;;;;;;;17.08;11.20;;;;;;;;;;5049713;28;20187;-65
2021/11/29 10:23:32;;;;;;;15.48;11.02;;;;;;;;;;5051036;28;20199;-66
2021/11/29 10:26:02;;;;;;;15.20;11.25;;;;;;;;;;5050657;28;20182;-66
2021/11/29 10:28:31;;;;;;;14.60;10.55;;;;;;;;;;5052131;28;20716;-65
2021/11/29 10:31:17;;;;;;;13.57;10.50;;;;;;;;;;5051808;28;20198;-65
2021/11/29 10:33:53;;;;;;;13.48;9.82;;;;;;;;;;5051914;28;20207;-66
2021/11/29 10:36:21;;;;;;;13.43;9.35;;;;;;;;;;5050824;28;20204;-66
2021/11/29 10:38:51;;;;;;;12.35;10.02;;;;;;;;;;5052045;28;20195;-66
2021/11/29 10:41:28;;;;;;;12.68;10.05;;;;;;;;;;5051317;28;20198;-66
2021/11/29 10:43:56;;;;;;;11.63;9.13;;;;;;;;;;5050360;28;20253;-66
2021/11/29 10:46:26;;;;;;;11.50;9.13;;;;;;;;;;5051184;28;20218;-66
2021/11/29 10:48:57;;;;;;;12.05;9.00;;;;;;;;;;5051894;28;20222;-65
2021/11/29 10:51:27;;;;;;;12.38;9.85;;;;;;;;;;5051299;28;20198;-64
2021/11/29 10:53:58;;;;;;;13.02;10.32;;;;;;;;;;5051875;28;20214;-65
2021/11/29 10:56:30;;;;;;;12.93;10.05;;;;;;;;;;5050751;28;20313;-66
2021/11/29 10:59:01;;;;;;;11.73;9.07;;;;;;;;;;5049888;28;20198;-65
2021/11/29 11:01:37;;;;;;;11.45;9.88;;;;;;;;;;5050729;28;20319;-66
2021/11/29 11:04:12;;;;;;;12.25;10.13;;;;;;;;;;5051663;28;20194;-66
2021/11/29 11:06:42;;;;;;;14.13;10.82;;;;;;;;;;5051089;28;20201;-68
2021/11/29 11:09:17;;;;;;;13.75;11.20;;;;;;;;;;5051081;28;20222;-66
2021/11/29 11:11:49;;;;;;;12.20;9.98;;;;;;;;;;5049241;28;20198;-66
2021/11/29 11:14:19;;;;;;;13.27;9.57;;;;;;;;;;5047695;28;20230;-66
2021/11/29 11:16:52;;;;;;;13.23;9.63;;;;;;;;;;5049009;28;20677;-65
2021/11/29 11:19:27;;;;;;;13.88;10.10;;;;;;;;;;5050816;28;20562;-66
2021/11/29 11:21:55;;;;;;;15.55;11.50;;;;;;;;;;5051248;28;20198;-65
2021/11/29 11:24:24;;;;;;;15.07;11.45;;;;;;;;;;5051061;28;20561;-66
2021/11/29 11:26:55;;;;;;;15.25;11.10;;;;;;;;;;5050364;28;20194;-66
2021/11/29 11:29:37;;;;;;;12.40;10.05;;;;;;;;;;5050086;28;20230;-66
2021/11/29 11:32:10;;;;;;;14.57;10.27;;;;;;;;;;5049428;28;20214;-66
2021/11/29 11:34:41;;;;;;;14.40;10.70;;;;;;;;;;5050898;28;20580;-65
2021/11/29 11:37:08;;;;;;;14.07;10.20;;;;;;;;;;5050710;28;20236;-66
2021/11/29 11:39:40;;;;;;;12.82;9.75;;;;;;;;;;5050404;28;20218;-65
2021/11/29 11:42:12;;;;;;;15.50;12.57;;;;;;;;;;5050256;28;20205;-66
2021/11/29 11:44:42;;;;;;;14.57;11.05;;;;;;;;;;5050744;28;20213;-65
2021/11/29 11:47:14;;;;;;;14.50;10.63;;;;;;;;;;5049964;28;20195;-66
2021/11/29 11:49:45;;;;;;;14.32;10.68;;;;;;;;;;5047317;28;20636;-66
2021/11/29 11:52:14;;;;;;;13.70;10.13;;;;;;;;;;5049848;28;20212;-66
2021/11/29 11:54:45;;;;;;;13.32;10.00;;;;;;;;;;5050811;28;20201;-66
2021/11/29 11:57:20;;;;;;;13.02;10.82;;;3.40;78.80;;;;;;5049675;28;20199;-66
2021/11/29 12:00:02;;;;;;;17.50;12.77;;;5.50;65.00;;;;;;5050729;28;20198;-65
2021/11/29 12:03:07;;;;;;;14.45;11.20;;;5.40;65.90;;;;;;5049543;28;20211;-65
2021/11/29 12:05:49;;;;;;;16.35;12.50;;;5.40;66.60;;;;;;5049419;28;20195;-65
2021/11/29 12:08:45;;;;;;;14.70;11.77;;;5.20;67.10;;;;;;5050313;28;20268;-65
2021/11/29 12:11:38;;;;;;;16.85;11.57;;;5.10;67.90;;;;;;5048302;28;20197;-66
2021/11/29 12:14:18;;;;;;;15.93;12.50;;;5.00;68.70;;;;;;5050788;28;20696;-65
2021/11/29 12:16:48;;;;;;;14.85;10.93;;;4.90;69.30;;;;;;5049887;28;20645;-65
2021/11/29 12:19:35;;;;;;;14.88;10.70;;;4.80;70.40;;;;;;5046493;28;20195;-65
2021/11/29 12:22:26;;;;;;;14.15;9.23;;;4.80;71.50;;;;;;5049043;28;20210;-65
2021/11/29 12:24:57;;;;;;;11.52;9.63;;;4.80;72.00;;;;;;5047722;28;20202;-69
2021/11/29 12:27:40;;;;;;;16.20;10.98;;;4.80;71.40;;;;;;5048047;28;20211;-65
2021/11/29 12:30:08;;;;;;;12.48;8.82;;;4.80;70.90;;;;;;5049920;28;20257;-65
2021/11/29 12:32:51;;;;;;;9.82;7.15;;;4.80;70.30;;;;;;5050603;28;20203;-68
2021/11/29 12:35:30;;;;;;;10.05;6.97;;;4.80;69.40;;;;;;5047409;28;20229;-65
2021/11/29 12:38:05;;;;;;;11.05;7.45;;;4.70;68.60;;;;;;5049675;28;20301;-65
2021/11/29 12:40:41;;;;;;;10.82;7.00;;;;;;;;;;5050653;28;20297;-65
2021/11/29 12:43:09;;;;;;;12.25;7.72;;;;;;;;;;5048841;28;20256;-65
2021/11/29 12:45:36;;;;;;;9.70;6.68;;;;;;;;;;5049606;28;20288;-66
2021/11/29 12:48:12;;;;;;;9.75;7.43;;;;;;;;;;5049308;28;20195;-65
2021/11/29 12:50:42;;;;;;;14.07;8.45;;;;;;;;;;5050142;28;20276;-66
2021/11/29 12:53:16;;;;;;;10.10;7.10;;;;;;;;;;5049401;28;20187;-64
2021/11/29 12:55:45;;;;;;;12.77;6.97;;;;;;;;;;5049349;28;20198;-64
2021/11/29 12:58:22;;;;;;;11.20;7.85;;;;;;;;;;5050899;28;20189;-65
2021/11/29 13:00:51;;;;;;;10.32;6.43;;;;;;;;;;5047826;28;20201;-64
2021/11/29 13:03:19;;;;;;;8.90;6.80;;;;;;;;;;5050103;28;20190;-65
2021/11/29 13:05:47;;;;;;;9.82;6.55;;;;;;;;;;5051206;28;20191;-65
2021/11/29 13:08:19;;;;;;;12.07;7.25;;;;;;;;;;5050587;28;20576;-64
2021/11/29 13:10:48;;;;;;;13.05;8.05;;;;;;;;;;5051503;28;20340;-65
2021/11/29 13:13:33;;;;;;;9.68;7.07;;;;;;;;;;5045228;28;20183;-65
2021/11/29 13:16:03;;;;;;;10.32;6.45;;;;;;;;;;5051767;28;20250;-65
2021/11/29 13:18:51;;;;;;;8.23;6.15;;;;;;;;;;5050186;28;20651;-66
2021/11/29 13:21:19;;;;;;;8.45;6.40;;;;;;;;;;5051049;28;20191;-65
2021/11/29 13:23:49;;;;;;;8.82;6.82;;;;;;;;;;5050518;28;20236;-63
2021/11/29 13:26:20;;;;;;;9.15;6.32;;;;;;;;;;5050170;28;20191;-64
2021/11/29 13:28:49;;;;;;;8.55;5.97;;;;;;;;;;5050478;28;20277;-67
2021/11/29 13:31:23;;;;;;;7.68;6.57;;;;;;;;;;5053533;28;20225;-64
2021/11/29 13:33:51;;;;;;;14.10;12.70;;;;;;;;;;5054196;28;20218;-65
2021/11/29 13:36:20;;;;;;;12.52;9.80;;;;;;;;;;5054146;28;20190;-67
2021/11/29 13:38:50;;;;;;;11.88;8.30;;;;;;;;;;5050119;28;20682;-65
2021/11/29 13:41:22;;;;;;;10.85;6.13;;;;;;;;;;5054131;28;20543;-67
2021/11/29 13:43:49;;;;;;;8.77;6.80;;;;;;;;;;5053772;28;20195;-66
2021/11/29 13:46:17;;;;;;;8.57;7.45;;;;;;;;;;5049272;28;20684;-69
2021/11/29 13:48:47;;;;;;;8.35;6.45;;;;;;;;;;5053871;28;20811;-65
2021/11/29 13:51:16;;;;;;;11.05;9.27;;;;;;;;;;5053407;28;20313;-66
2021/11/29 13:53:48;;;;;;;12.50;10.63;;;;;;;;;;5053816;28;20586;-65
2021/11/29 13:56:23;;;;;;;17.17;10.75;;;;;;;;;;5053680;28;20197;-65
2021/11/29 13:58:54;;;;;;;7.47;6.03;;;;;;;;;;5053047;28;20183;-67
2021/11/29 14:01:25;;;;;;;10.52;8.20;;;;;;;;;;5053610;28;20226;-65
2021/11/29 14:03:54;;;;;;;8.27;6.22;;;;;;;;;;5053562;28;20187;-65
2021/11/29 14:06:22;;;;;;;9.43;6.13;;;;;;;;;;5052983;28;20236;-65
2021/11/29 14:08:52;;;;;;;14.23;8.80;;;;;;;;;;5053954;28;20191;-67
2021/11/29 14:11:20;;;;;;;24.27;18.42;;;;;;;;;;5053166;28;20214;-66
2021/11/29 14:13:53;;;;;;;18.92;14.07;;;;;;;;;;5054002;28;20187;-65
2021/11/29 14:16:25;;;;;;;31.13;21.50;;;;;;;;;;5053089;28;20229;-66
2021/11/29 14:18:53;;;;;;;17.20;12.00;;;;;;;;;;5053275;28;20209;-66
2021/11/29 14:21:25;;;;;;;15.85;10.15;;;;;;;;;;5052488;28;20642;-66
2021/11/29 14:23:56;;;;;;;14.20;8.45;;;;;;;;;;5053581;28;20217;-65
2021/11/29 14:26:31;;;;;;;15.90;7.35;;;;;;;;;;5053572;28;20191;-66
2021/11/29 14:29:00;;;;;;;12.43;9.05;;;;;;;;;;5049310;28;20650;-65
2021/11/29 14:31:29;;;;;;;10.10;8.70;;;;;;;;;;5053684;28;20324;-65
2021/11/29 14:33:56;;;;;;;10.90;7.78;;;;;;;;;;5052282;28;20183;-63
2021/11/29 14:36:27;;;;;;;8.60;5.75;;;;;;;;;;5034686;28;20398;-65
2021/11/29 14:38:55;;;;;;;9.20;6.28;;;;;;;;;;5052539;28;20685;-65
2021/11/29 14:41:22;;;;;;;9.93;5.40;;;;;;;;;;5053377;28;20276;-65
2021/11/29 14:43:51;;;;;;;11.68;8.00;;;;;;;;;;5052064;28;20268;-66
2021/11/29 14:46:33;;;;;;;6.82;3.40;;;;;;;;;;5051549;28;20333;-65
2021/11/29 14:49:17;;;;;;;7.72;3.63;;;;;;;;;;5052592;28;20191;-67